sensor_id;sensor_type;location;lat;lon;timestamp;temperature;humidity
48206;DHT22;33995;48.202;16.260;2022-08-23T00:01:40;16.00;99.90
48206;DHT22;33995;48.202;16.260;2022-08-23T00:04:15;16.00;99.90
48206;DHT22;33995;48.202;16.260;2022-08-23T00:06:47;16.00;99.90
48206;DHT22;33995;48.202;16.260;2022-08-23T00:09:16;15.90;99.90
48206;DHT22;33995;48.202;16.260;2022-08-23T00:11:53;15.90;99.90
48206;DHT22;33995;48.202;16.260;2022-08-23T00:14:22;15.90;99.90
48206;DHT22;33995;48.202;16.260;2022-08-23T00:16:55;15.90;99.90
48206;DHT22;33995;48.202;16.260;2022-08-23T00:19:24;15.90;99.90
48206;DHT22;33995;48.202;16.260;2022-08-23T00:21:54;15.90;99.90
48206;DHT22;33995;48.202;16.260;2022-08-23T00:24:23;15.80;99.90
48206;DHT22;33995;48.202;16.260;2022-08-23T00:27:23;15.80;99.90
48206;DHT22;33995;48.202;16.260;2022-08-23T00:29:53;15.70;99.90
48206;DHT22;33995;48.202;16.260;2022-08-23T00:32:24;15.80;99.90
48206;DHT22;33995;48.202;16.260;2022-08-23T00:34:51;15.80;99.90
48206;DHT22;33995;48.202;16.260;2022-08-23T00:37:20;15.80;99.90
48206;DHT22;33995;48.202;16.260;2022-08-23T00:39:48;15.80;99.90
48206;DHT22;33995;48.202;16.260;2022-08-23T00:45:38;15.80;99.90
48206;DHT22;33995;48.202;16.260;2022-08-23T00:48:26;15.80;99.90
48206;DHT22;33995;48.202;16.260;2022-08-23T00:51:06;15.80;99.90
48206;DHT22;33995;48.202;16.260;2022-08-23T00:53:40;15.80;99.90
48206;DHT22;33995;48.202;16.260;2022-08-23T00:56:11;15.80;99.90
48206;DHT22;33995;48.202;16.260;2022-08-23T00:58:39;15.80;99.90
48206;DHT22;33995;48.202;16.260;2022-08-23T01:01:08;15.80;99.90
48206;DHT22;33995;48.202;16.260;2022-08-23T01:03:39;15.80;99.90
48206;DHT22;33995;48.202;16.260;2022-08-23T01:06:22;15.80;99.90
48206;DHT22;33995;48.202;16.260;2022-08-23T01:08:56;15.80;99.90
48206;DHT22;33995;48.202;16.260;2022-08-23T01:17:16;15.80;99.90
48206;DHT22;33995;48.202;16.260;2022-08-23T01:19:57;15.70;99.90
48206;DHT22;33995;48.202;16.260;2022-08-23T01:25:03;15.80;99.90
48206;DHT22;33995;48.202;16.260;2022-08-23T01:27:41;15.70;99.90
48206;DHT22;33995;48.202;16.260;2022-08-23T01:30:14;15.80;99.90
48206;DHT22;33995;48.202;16.260;2022-08-23T01:32:53;15.70;99.90
48206;DHT22;33995;48.202;16.260;2022-08-23T01:38:06;15.70;99.90
48206;DHT22;33995;48.202;16.260;2022-08-23T01:40:35;15.70;99.90
48206;DHT22;33995;48.202;16.260;2022-08-23T01:43:04;15.70;99.90
48206;DHT22;33995;48.202;16.260;2022-08-23T01:45:32;15.70;99.90
48206;DHT22;33995;48.202;16.260;2022-08-23T01:48:00;15.70;99.90
48206;DHT22;33995;48.202;16.260;2022-08-23T01:50:29;15.70;99.90
48206;DHT22;33995;48.202;16.260;2022-08-23T01:52:57;15.70;99.90
48206;DHT22;33995;48.202;16.260;2022-08-23T01:55:26;15.70;99.90
48206;DHT22;33995;48.202;16.260;2022-08-23T01:57:56;15.80;99.90
48206;DHT22;33995;48.202;16.260;2022-08-23T02:00:29;15.80;99.90
48206;DHT22;33995;48.202;16.260;2022-08-23T02:02:57;15.70;99.90
48206;DHT22;33995;48.202;16.260;2022-08-23T02:05:26;15.80;99.90
48206;DHT22;33995;48.202;16.260;2022-08-23T02:07:54;15.70;99.90
48206;DHT22;33995;48.202;16.260;2022-08-23T02:10:22;15.70;99.90
48206;DHT22;33995;48.202;16.260;2022-08-23T02:12:50;15.70;99.90
48206;DHT22;33995;48.202;16.260;2022-08-23T02:15:19;15.70;99.90
48206;DHT22;33995;48.202;16.260;2022-08-23T02:17:50;15.70;99.90
48206;DHT22;33995;48.202;16.260;2022-08-23T02:20:21;15.70;99.90
48206;DHT22;33995;48.202;16.260;2022-08-23T02:22:48;15.70;99.90
48206;DHT22;33995;48.202;16.260;2022-08-23T02:25:15;15.80;99.90
48206;DHT22;33995;48.202;16.260;2022-08-23T02:27:43;15.70;99.90
48206;DHT22;33995;48.202;16.260;2022-08-23T02:30:12;15.80;99.90
48206;DHT22;33995;48.202;16.260;2022-08-23T02:32:40;15.70;99.90
48206;DHT22;33995;48.202;16.260;2022-08-23T02:35:09;15.70;99.90
48206;DHT22;33995;48.202;16.260;2022-08-23T02:37:37;15.70;99.90
48206;DHT22;33995;48.202;16.260;2022-08-23T02:40:05;15.70;99.90
48206;DHT22;33995;48.202;16.260;2022-08-23T02:42:33;15.70;99.90
48206;DHT22;33995;48.202;16.260;2022-08-23T02:45:01;15.70;99.90
48206;DHT22;33995;48.202;16.260;2022-08-23T02:47:31;15.70;99.90
48206;DHT22;33995;48.202;16.260;2022-08-23T02:50:11;15.70;99.90
48206;DHT22;33995;48.202;16.260;2022-08-23T02:52:39;15.70;99.90
48206;DHT22;33995;48.202;16.260;2022-08-23T02:55:07;15.70;99.90
48206;DHT22;33995;48.202;16.260;2022-08-23T02:57:35;15.70;99.90
48206;DHT22;33995;48.202;16.260;2022-08-23T06:48:03;16.10;99.90
48206;DHT22;33995;48.202;16.260;2022-08-23T06:50:45;16.10;99.90
48206;DHT22;33995;48.202;16.260;2022-08-23T06:53:56;16.10;99.90
48206;DHT22;33995;48.202;16.260;2022-08-23T06:57:01;16.10;99.90
48206;DHT22;33995;48.202;16.260;2022-08-23T06:59:42;16.10;99.90
48206;DHT22;33995;48.202;16.260;2022-08-23T07:02:36;16.10;99.90
48206;DHT22;33995;48.202;16.260;2022-08-23T07:05:38;16.20;99.90
48206;DHT22;33995;48.202;16.260;2022-08-23T07:08:21;16.20;99.90
48206;DHT22;33995;48.202;16.260;2022-08-23T07:10:54;16.30;99.90
48206;DHT22;33995;48.202;16.260;2022-08-23T07:13:28;16.30;99.90
48206;DHT22;33995;48.202;16.260;2022-08-23T07:16:00;16.30;99.90
48206;DHT22;33995;48.202;16.260;2022-08-23T07:18:35;16.30;99.90
48206;DHT22;33995;48.202;16.260;2022-08-23T07:21:14;16.40;99.90
48206;DHT22;33995;48.202;16.260;2022-08-23T07:23:44;16.50;99.90
48206;DHT22;33995;48.202;16.260;2022-08-23T07:26:20;16.40;99.90
48206;DHT22;33995;48.202;16.260;2022-08-23T07:28:49;16.50;99.90
48206;DHT22;33995;48.202;16.260;2022-08-23T07:31:24;16.60;99.90
48206;DHT22;33995;48.202;16.260;2022-08-23T07:34:01;16.60;99.90
48206;DHT22;33995;48.202;16.260;2022-08-23T07:36:36;16.50;99.90
48206;DHT22;33995;48.202;16.260;2022-08-23T07:39:16;16.60;99.90
48206;DHT22;33995;48.202;16.260;2022-08-23T07:41:46;16.60;99.90
48206;DHT22;33995;48.202;16.260;2022-08-23T07:44:21;16.80;99.90
48206;DHT22;33995;48.202;16.260;2022-08-23T07:47:00;16.70;99.90
48206;DHT22;33995;48.202;16.260;2022-08-23T07:49:34;16.80;99.90
48206;DHT22;33995;48.202;16.260;2022-08-23T07:52:07;16.80;99.90
48206;DHT22;33995;48.202;16.260;2022-08-23T07:54:45;16.80;99.90
48206;DHT22;33995;48.202;16.260;2022-08-23T07:57:44;16.80;99.90
48206;DHT22;33995;48.202;16.260;2022-08-23T08:00:43;16.80;99.90
48206;DHT22;33995;48.202;16.260;2022-08-23T08:03:37;16.90;99.90
48206;DHT22;33995;48.202;16.260;2022-08-23T08:06:41;16.80;99.90
48206;DHT22;33995;48.202;16.260;2022-08-23T08:09:10;16.90;99.90
48206;DHT22;33995;48.202;16.260;2022-08-23T08:11:44;16.90;99.90
48206;DHT22;33995;48.202;16.260;2022-08-23T08:14:22;16.90;99.90
48206;DHT22;33995;48.202;16.260;2022-08-23T08:16:56;17.00;99.90
48206;DHT22;33995;48.202;16.260;2022-08-23T08:19:51;17.10;99.90
48206;DHT22;33995;48.202;16.260;2022-08-23T08:22:56;17.20;99.90
48206;DHT22;33995;48.202;16.260;2022-08-23T08:25:40;17.40;99.90
48206;DHT22;33995;48.202;16.260;2022-08-23T08:28:11;17.50;99.90
48206;DHT22;33995;48.202;16.260;2022-08-23T08:30:45;17.50;99.90
48206;DHT22;33995;48.202;16.260;2022-08-23T08:33:16;17.50;99.90
48206;DHT22;33995;48.202;16.260;2022-08-23T08:35:47;17.40;99.90
48206;DHT22;33995;48.202;16.260;2022-08-23T08:38:28;17.40;99.90
48206;DHT22;33995;48.202;16.260;2022-08-23T08:41:38;17.40;99.90
48206;DHT22;33995;48.202;16.260;2022-08-23T08:53:21;17.10;99.90
48206;DHT22;33995;48.202;16.260;2022-08-23T08:56:17;17.00;99.90
48206;DHT22;33995;48.202;16.260;2022-08-23T08:59:50;17.00;99.90
48206;DHT22;33995;48.202;16.260;2022-08-23T09:02:25;16.90;99.90
48206;DHT22;33995;48.202;16.260;2022-08-23T09:05:25;16.80;99.90
48206;DHT22;33995;48.202;16.260;2022-08-23T09:17:08;16.50;99.90
48206;DHT22;33995;48.202;16.260;2022-08-23T09:19:39;16.60;99.90
48206;DHT22;33995;48.202;16.260;2022-08-23T09:22:13;16.60;99.90
48206;DHT22;33995;48.202;16.260;2022-08-23T09:24:44;16.60;99.90
48206;DHT22;33995;48.202;16.260;2022-08-23T09:27:24;16.60;99.90
48206;DHT22;33995;48.202;16.260;2022-08-23T09:29:57;16.60;99.90
48206;DHT22;33995;48.202;16.260;2022-08-23T09:35:22;16.60;99.90
48206;DHT22;33995;48.202;16.260;2022-08-23T09:38:17;16.50;99.90
48206;DHT22;33995;48.202;16.260;2022-08-23T09:41:00;16.50;99.90
48206;DHT22;33995;48.202;16.260;2022-08-23T09:43:42;16.40;99.90
48206;DHT22;33995;48.202;16.260;2022-08-23T09:46:10;16.50;99.90
48206;DHT22;33995;48.202;16.260;2022-08-23T09:48:45;16.50;99.90
48206;DHT22;33995;48.202;16.260;2022-08-23T09:51:37;16.50;99.90
48206;DHT22;33995;48.202;16.260;2022-08-23T09:57:02;16.50;99.90
48206;DHT22;33995;48.202;16.260;2022-08-23T09:59:46;16.50;99.90
48206;DHT22;33995;48.202;16.260;2022-08-23T10:02:33;16.50;99.90
48206;DHT22;33995;48.202;16.260;2022-08-23T10:05:38;16.50;99.90
48206;DHT22;33995;48.202;16.260;2022-08-23T10:08:22;16.50;99.90
48206;DHT22;33995;48.202;16.260;2022-08-23T10:11:01;16.50;99.90
48206;DHT22;33995;48.202;16.260;2022-08-23T10:13:33;16.50;99.90
48206;DHT22;33995;48.202;16.260;2022-08-23T10:19:57;16.50;99.90
48206;DHT22;33995;48.202;16.260;2022-08-23T10:22:31;16.50;99.90
48206;DHT22;33995;48.202;16.260;2022-08-23T10:28:48;16.60;99.90
48206;DHT22;33995;48.202;16.260;2022-08-23T10:38:18;16.70;99.90
48206;DHT22;33995;48.202;16.260;2022-08-23T10:41:30;16.70;99.90
48206;DHT22;33995;48.202;16.260;2022-08-23T10:49:59;16.90;99.90
48206;DHT22;33995;48.202;16.260;2022-08-23T10:53:13;17.00;99.90
48206;DHT22;33995;48.202;16.260;2022-08-23T10:55:51;17.10;99.90
48206;DHT22;33995;48.202;16.260;2022-08-23T10:58:49;17.40;99.90
48206;DHT22;33995;48.202;16.260;2022-08-23T11:07:38;18.20;99.90
48206;DHT22;33995;48.202;16.260;2022-08-23T11:13:31;18.40;99.90
48206;DHT22;33995;48.202;16.260;2022-08-23T11:16:24;18.50;99.90
48206;DHT22;33995;48.202;16.260;2022-08-23T11:18:55;18.60;99.90
48206;DHT22;33995;48.202;16.260;2022-08-23T11:29:30;19.40;99.90
48206;DHT22;33995;48.202;16.260;2022-08-23T11:32:34;19.60;99.90
48206;DHT22;33995;48.202;16.260;2022-08-23T11:35:40;19.40;99.90
48206;DHT22;33995;48.202;16.260;2022-08-23T11:38:14;19.40;99.90
48206;DHT22;33995;48.202;16.260;2022-08-23T11:43:33;19.30;99.90
48206;DHT22;33995;48.202;16.260;2022-08-23T11:49:55;19.20;99.90
48206;DHT22;33995;48.202;16.260;2022-08-23T12:01:33;18.90;99.90
48206;DHT22;33995;48.202;16.260;2022-08-23T12:04:31;18.80;99.90
48206;DHT22;33995;48.202;16.260;2022-08-23T12:07:01;18.80;99.90
48206;DHT22;33995;48.202;16.260;2022-08-23T12:12:27;18.70;99.90
48206;DHT22;33995;48.202;16.260;2022-08-23T12:14:59;18.70;99.90
48206;DHT22;33995;48.202;16.260;2022-08-23T12:20:10;18.70;99.90
48206;DHT22;33995;48.202;16.260;2022-08-23T12:23:06;18.70;99.90
48206;DHT22;33995;48.202;16.260;2022-08-23T12:25:40;18.60;99.90
48206;DHT22;33995;48.202;16.260;2022-08-23T12:28:38;18.70;99.90
48206;DHT22;33995;48.202;16.260;2022-08-23T12:40:47;19.10;99.90
48206;DHT22;33995;48.202;16.260;2022-08-23T12:43:27;19.30;99.90
48206;DHT22;33995;48.202;16.260;2022-08-23T12:46:01;19.40;99.90
48206;DHT22;33995;48.202;16.260;2022-08-23T12:48:44;19.60;99.90
48206;DHT22;33995;48.202;16.260;2022-08-23T12:51:12;19.70;99.90
48206;DHT22;33995;48.202;16.260;2022-08-23T12:53:43;19.90;99.90
48206;DHT22;33995;48.202;16.260;2022-08-23T12:56:17;20.00;99.90
48206;DHT22;33995;48.202;16.260;2022-08-23T12:58:50;20.00;99.90
48206;DHT22;33995;48.202;16.260;2022-08-23T13:04:07;19.90;99.90
48206;DHT22;33995;48.202;16.260;2022-08-23T13:06:45;19.90;99.90
48206;DHT22;33995;48.202;16.260;2022-08-23T13:09:31;19.90;99.90
48206;DHT22;33995;48.202;16.260;2022-08-23T13:12:01;20.10;99.90
48206;DHT22;33995;48.202;16.260;2022-08-23T13:22:34;20.10;99.90
48206;DHT22;33995;48.202;16.260;2022-08-23T13:25:22;20.20;99.90
48206;DHT22;33995;48.202;16.260;2022-08-23T13:28:03;20.30;99.90
48206;DHT22;33995;48.202;16.260;2022-08-23T13:30:35;20.50;99.90
48206;DHT22;33995;48.202;16.260;2022-08-23T13:33:18;20.50;99.90
48206;DHT22;33995;48.202;16.260;2022-08-23T13:35:51;20.50;99.90
48206;DHT22;33995;48.202;16.260;2022-08-23T13:38:41;20.50;99.90
48206;DHT22;33995;48.202;16.260;2022-08-23T13:41:24;20.60;99.90
48206;DHT22;33995;48.202;16.260;2022-08-23T13:43:54;20.60;99.90
48206;DHT22;33995;48.202;16.260;2022-08-23T13:46:27;20.60;99.90
48206;DHT22;33995;48.202;16.260;2022-08-23T13:49:19;20.80;99.90
48206;DHT22;33995;48.202;16.260;2022-08-23T13:54:52;20.60;99.90
48206;DHT22;33995;48.202;16.260;2022-08-23T13:57:22;20.40;99.90
48206;DHT22;33995;48.202;16.260;2022-08-23T13:59:56;20.30;99.90
48206;DHT22;33995;48.202;16.260;2022-08-23T14:02:51;20.10;99.90
48206;DHT22;33995;48.202;16.260;2022-08-23T14:05:28;19.90;99.90
48206;DHT22;33995;48.202;16.260;2022-08-23T14:08:00;19.70;99.90
48206;DHT22;33995;48.202;16.260;2022-08-23T14:10:30;19.50;99.90
48206;DHT22;33995;48.202;16.260;2022-08-23T14:13:01;19.40;99.90
48206;DHT22;33995;48.202;16.260;2022-08-23T14:15:29;19.30;99.90
48206;DHT22;33995;48.202;16.260;2022-08-23T14:18:19;19.20;99.90
48206;DHT22;33995;48.202;16.260;2022-08-23T14:20:56;19.20;99.90
48206;DHT22;33995;48.202;16.260;2022-08-23T14:23:24;19.30;99.90
48206;DHT22;33995;48.202;16.260;2022-08-23T14:25:55;19.20;99.90
48206;DHT22;33995;48.202;16.260;2022-08-23T14:28:28;19.20;99.90
48206;DHT22;33995;48.202;16.260;2022-08-23T14:30:58;19.20;99.90
48206;DHT22;33995;48.202;16.260;2022-08-23T14:33:26;19.20;99.90
48206;DHT22;33995;48.202;16.260;2022-08-23T14:35:54;19.20;99.90
48206;DHT22;33995;48.202;16.260;2022-08-23T14:38:24;19.20;99.90
48206;DHT22;33995;48.202;16.260;2022-08-23T14:40:56;19.10;99.90
48206;DHT22;33995;48.202;16.260;2022-08-23T14:43:26;19.00;99.90
48206;DHT22;33995;48.202;16.260;2022-08-23T14:45:56;19.00;99.90
48206;DHT22;33995;48.202;16.260;2022-08-23T14:48:29;18.90;99.90
48206;DHT22;33995;48.202;16.260;2022-08-23T14:50:58;18.90;99.90
48206;DHT22;33995;48.202;16.260;2022-08-23T14:53:29;18.90;99.90
48206;DHT22;33995;48.202;16.260;2022-08-23T14:56:02;18.90;99.90
48206;DHT22;33995;48.202;16.260;2022-08-23T14:58:49;18.90;99.90
48206;DHT22;33995;48.202;16.260;2022-08-23T15:01:18;18.90;99.90
48206;DHT22;33995;48.202;16.260;2022-08-23T15:03:51;18.90;99.90
48206;DHT22;33995;48.202;16.260;2022-08-23T15:06:22;18.90;99.90
48206;DHT22;33995;48.202;16.260;2022-08-23T15:08:49;18.90;99.90
48206;DHT22;33995;48.202;16.260;2022-08-23T15:11:21;18.90;99.90
48206;DHT22;33995;48.202;16.260;2022-08-23T15:14:17;19.00;99.90
48206;DHT22;33995;48.202;16.260;2022-08-23T15:16:47;19.00;99.90
48206;DHT22;33995;48.202;16.260;2022-08-23T15:19:20;19.00;99.90
48206;DHT22;33995;48.202;16.260;2022-08-23T15:21:53;18.90;99.90
48206;DHT22;33995;48.202;16.260;2022-08-23T15:24:22;19.00;99.90
48206;DHT22;33995;48.202;16.260;2022-08-23T15:27:07;18.90;99.90
48206;DHT22;33995;48.202;16.260;2022-08-23T15:29:41;19.00;99.90
48206;DHT22;33995;48.202;16.260;2022-08-23T15:32:13;18.90;99.90
48206;DHT22;33995;48.202;16.260;2022-08-23T15:34:48;19.00;99.90
48206;DHT22;33995;48.202;16.260;2022-08-23T15:37:20;19.00;99.90
48206;DHT22;33995;48.202;16.260;2022-08-23T15:39:52;19.10;99.90
48206;DHT22;33995;48.202;16.260;2022-08-23T15:42:24;19.10;99.90
48206;DHT22;33995;48.202;16.260;2022-08-23T15:44:54;19.10;99.90
48206;DHT22;33995;48.202;16.260;2022-08-23T15:47:28;19.00;99.90
48206;DHT22;33995;48.202;16.260;2022-08-23T15:49:58;18.90;99.90
48206;DHT22;33995;48.202;16.260;2022-08-23T15:52:27;18.90;99.90
48206;DHT22;33995;48.202;16.260;2022-08-23T15:54:54;18.80;99.90
48206;DHT22;33995;48.202;16.260;2022-08-23T15:57:24;18.80;99.90
48206;DHT22;33995;48.202;16.260;2022-08-23T15:59:58;18.90;99.90
48206;DHT22;33995;48.202;16.260;2022-08-23T16:02:29;18.90;99.90
48206;DHT22;33995;48.202;16.260;2022-08-23T16:05:18;18.80;99.90
48206;DHT22;33995;48.202;16.260;2022-08-23T16:08:00;18.90;99.90
48206;DHT22;33995;48.202;16.260;2022-08-23T16:10:32;19.00;99.90
48206;DHT22;33995;48.202;16.260;2022-08-23T16:13:01;18.90;99.90
48206;DHT22;33995;48.202;16.260;2022-08-23T16:15:31;18.80;99.90
48206;DHT22;33995;48.202;16.260;2022-08-23T16:17:58;18.70;99.90
48206;DHT22;33995;48.202;16.260;2022-08-23T16:20:27;18.70;99.90
48206;DHT22;33995;48.202;16.260;2022-08-23T16:22:56;18.70;99.90
48206;DHT22;33995;48.202;16.260;2022-08-23T16:25:26;18.70;99.90
48206;DHT22;33995;48.202;16.260;2022-08-23T16:27:54;18.70;99.90
48206;DHT22;33995;48.202;16.260;2022-08-23T16:30:23;18.60;99.90
48206;DHT22;33995;48.202;16.260;2022-08-23T16:32:53;18.60;99.90
48206;DHT22;33995;48.202;16.260;2022-08-23T16:35:23;18.60;99.90
48206;DHT22;33995;48.202;16.260;2022-08-23T16:37:54;18.50;99.90
48206;DHT22;33995;48.202;16.260;2022-08-23T16:40:23;18.50;99.90
48206;DHT22;33995;48.202;16.260;2022-08-23T16:42:54;18.40;99.90
48206;DHT22;33995;48.202;16.260;2022-08-23T16:45:22;18.40;99.90
48206;DHT22;33995;48.202;16.260;2022-08-23T16:47:52;18.40;99.90
48206;DHT22;33995;48.202;16.260;2022-08-23T16:50:20;18.40;99.90
48206;DHT22;33995;48.202;16.260;2022-08-23T16:52:49;18.40;99.90
48206;DHT22;33995;48.202;16.260;2022-08-23T16:55:16;18.30;99.90
48206;DHT22;33995;48.202;16.260;2022-08-23T16:57:44;18.30;99.90
48206;DHT22;33995;48.202;16.260;2022-08-23T17:00:12;18.30;99.90
48206;DHT22;33995;48.202;16.260;2022-08-23T17:02:41;18.20;99.90
48206;DHT22;33995;48.202;16.260;2022-08-23T17:05:12;18.20;99.90
48206;DHT22;33995;48.202;16.260;2022-08-23T17:07:41;18.20;99.90
48206;DHT22;33995;48.202;16.260;2022-08-23T17:10:11;18.20;99.90
48206;DHT22;33995;48.202;16.260;2022-08-23T17:12:44;18.20;99.90
48206;DHT22;33995;48.202;16.260;2022-08-23T17:15:17;18.20;99.90
48206;DHT22;33995;48.202;16.260;2022-08-23T17:17:47;18.20;99.90
48206;DHT22;33995;48.202;16.260;2022-08-23T17:20:18;18.10;99.90
48206;DHT22;33995;48.202;16.260;2022-08-23T17:22:46;18.10;99.90
48206;DHT22;33995;48.202;16.260;2022-08-23T17:25:15;18.10;99.90
48206;DHT22;33995;48.202;16.260;2022-08-23T17:27:44;18.10;99.90
48206;DHT22;33995;48.202;16.260;2022-08-23T17:30:14;18.10;99.90
48206;DHT22;33995;48.202;16.260;2022-08-23T17:32:43;18.10;99.90
48206;DHT22;33995;48.202;16.260;2022-08-23T17:35:15;18.00;99.90
48206;DHT22;33995;48.202;16.260;2022-08-23T17:37:44;18.00;99.90
48206;DHT22;33995;48.202;16.260;2022-08-23T17:40:15;18.00;99.90
48206;DHT22;33995;48.202;16.260;2022-08-23T17:42:47;18.00;99.90
48206;DHT22;33995;48.202;16.260;2022-08-23T17:45:16;17.90;99.90
48206;DHT22;33995;48.202;16.260;2022-08-23T17:47:45;17.90;99.90
48206;DHT22;33995;48.202;16.260;2022-08-23T17:50:15;17.90;99.90
48206;DHT22;33995;48.202;16.260;2022-08-23T17:52:43;17.90;99.90
48206;DHT22;33995;48.202;16.260;2022-08-23T17:55:12;17.90;99.90
48206;DHT22;33995;48.202;16.260;2022-08-23T17:57:45;17.80;99.90
48206;DHT22;33995;48.202;16.260;2022-08-23T18:00:16;17.80;99.90
48206;DHT22;33995;48.202;16.260;2022-08-23T18:02:43;17.80;99.90
48206;DHT22;33995;48.202;16.260;2022-08-23T18:05:13;17.80;99.90
48206;DHT22;33995;48.202;16.260;2022-08-23T18:07:41;17.80;99.90
48206;DHT22;33995;48.202;16.260;2022-08-23T18:10:12;17.80;99.90
48206;DHT22;33995;48.202;16.260;2022-08-23T18:12:43;17.80;99.90
48206;DHT22;33995;48.202;16.260;2022-08-23T18:15:14;17.90;99.90
48206;DHT22;33995;48.202;16.260;2022-08-23T18:17:49;17.90;99.90
48206;DHT22;33995;48.202;16.260;2022-08-23T18:20:34;17.90;99.90
48206;DHT22;33995;48.202;16.260;2022-08-23T18:23:03;18.00;99.90
48206;DHT22;33995;48.202;16.260;2022-08-23T18:25:37;18.00;99.90
48206;DHT22;33995;48.202;16.260;2022-08-23T18:28:21;18.00;99.90
48206;DHT22;33995;48.202;16.260;2022-08-23T18:30:54;18.00;99.90
48206;DHT22;33995;48.202;16.260;2022-08-23T18:33:30;18.00;99.90
48206;DHT22;33995;48.202;16.260;2022-08-23T18:36:14;17.90;99.90
48206;DHT22;33995;48.202;16.260;2022-08-23T18:38:44;17.90;99.90
48206;DHT22;33995;48.202;16.260;2022-08-23T18:41:14;17.90;99.90
48206;DHT22;33995;48.202;16.260;2022-08-23T18:43:45;18.00;99.90
48206;DHT22;33995;48.202;16.260;2022-08-23T18:46:14;18.00;99.90
48206;DHT22;33995;48.202;16.260;2022-08-23T18:48:43;17.90;99.90
48206;DHT22;33995;48.202;16.260;2022-08-23T18:51:23;18.00;99.90
48206;DHT22;33995;48.202;16.260;2022-08-23T18:53:52;18.00;99.90
48206;DHT22;33995;48.202;16.260;2022-08-23T18:56:22;18.00;99.90
48206;DHT22;33995;48.202;16.260;2022-08-23T18:58:50;18.00;99.90
48206;DHT22;33995;48.202;16.260;2022-08-23T19:01:33;18.10;99.90
48206;DHT22;33995;48.202;16.260;2022-08-23T19:04:09;18.00;99.90
48206;DHT22;33995;48.202;16.260;2022-08-23T19:06:39;18.00;99.90
48206;DHT22;33995;48.202;16.260;2022-08-23T19:09:10;18.00;99.90
48206;DHT22;33995;48.202;16.260;2022-08-23T19:11:41;18.10;99.90
48206;DHT22;33995;48.202;16.260;2022-08-23T19:14:11;18.10;99.90
48206;DHT22;33995;48.202;16.260;2022-08-23T19:16:43;18.10;99.90
48206;DHT22;33995;48.202;16.260;2022-08-23T19:19:15;18.10;99.90
48206;DHT22;33995;48.202;16.260;2022-08-23T19:21:48;18.10;99.90
48206;DHT22;33995;48.202;16.260;2022-08-23T19:24:18;18.10;99.90
48206;DHT22;33995;48.202;16.260;2022-08-23T19:26:52;18.00;99.90
48206;DHT22;33995;48.202;16.260;2022-08-23T19:29:22;18.00;99.90
48206;DHT22;33995;48.202;16.260;2022-08-23T19:31:54;18.00;99.90
48206;DHT22;33995;48.202;16.260;2022-08-23T19:34:22;18.00;99.90
48206;DHT22;33995;48.202;16.260;2022-08-23T19:37:06;18.00;99.90
48206;DHT22;33995;48.202;16.260;2022-08-23T19:39:49;18.00;99.90
48206;DHT22;33995;48.202;16.260;2022-08-23T19:42:21;18.00;99.90
48206;DHT22;33995;48.202;16.260;2022-08-23T19:45:06;18.00;99.90
48206;DHT22;33995;48.202;16.260;2022-08-23T19:47:34;18.00;99.90
48206;DHT22;33995;48.202;16.260;2022-08-23T19:50:08;18.00;99.90
48206;DHT22;33995;48.202;16.260;2022-08-23T19:52:39;18.00;99.90
48206;DHT22;33995;48.202;16.260;2022-08-23T19:55:10;17.90;99.90
48206;DHT22;33995;48.202;16.260;2022-08-23T19:57:43;17.90;99.90
48206;DHT22;33995;48.202;16.260;2022-08-23T20:00:12;17.90;99.90
48206;DHT22;33995;48.202;16.260;2022-08-23T20:02:47;17.90;99.90
48206;DHT22;33995;48.202;16.260;2022-08-23T20:05:16;17.90;99.90
48206;DHT22;33995;48.202;16.260;2022-08-23T20:07:45;17.90;99.90
48206;DHT22;33995;48.202;16.260;2022-08-23T20:10:14;17.90;99.90
48206;DHT22;33995;48.202;16.260;2022-08-23T20:12:44;17.90;99.90
48206;DHT22;33995;48.202;16.260;2022-08-23T20:15:16;17.90;99.90
48206;DHT22;33995;48.202;16.260;2022-08-23T20:17:48;17.90;99.90
48206;DHT22;33995;48.202;16.260;2022-08-23T20:20:18;17.90;99.90
48206;DHT22;33995;48.202;16.260;2022-08-23T20:22:46;17.90;99.90
48206;DHT22;33995;48.202;16.260;2022-08-23T20:25:37;17.90;99.90
48206;DHT22;33995;48.202;16.260;2022-08-23T20:28:19;17.90;99.90
48206;DHT22;33995;48.202;16.260;2022-08-23T20:30:54;17.90;99.90
48206;DHT22;33995;48.202;16.260;2022-08-23T20:33:25;17.80;99.90
48206;DHT22;33995;48.202;16.260;2022-08-23T20:35:54;17.80;99.90
48206;DHT22;33995;48.202;16.260;2022-08-23T20:38:23;17.80;99.90
48206;DHT22;33995;48.202;16.260;2022-08-23T20:41:00;17.90;99.90
48206;DHT22;33995;48.202;16.260;2022-08-23T20:43:31;17.90;99.90
48206;DHT22;33995;48.202;16.260;2022-08-23T20:46:05;17.90;99.90
48206;DHT22;33995;48.202;16.260;2022-08-23T20:48:35;17.90;99.90
48206;DHT22;33995;48.202;16.260;2022-08-23T20:51:06;17.90;99.90
48206;DHT22;33995;48.202;16.260;2022-08-23T20:53:35;17.90;99.90
48206;DHT22;33995;48.202;16.260;2022-08-23T20:56:06;17.90;99.90
48206;DHT22;33995;48.202;16.260;2022-08-23T20:58:41;17.90;99.90
48206;DHT22;33995;48.202;16.260;2022-08-23T21:01:08;17.90;99.90
48206;DHT22;33995;48.202;16.260;2022-08-23T21:03:39;17.90;99.90
48206;DHT22;33995;48.202;16.260;2022-08-23T21:08:50;17.90;99.90
48206;DHT22;33995;48.202;16.260;2022-08-23T21:11:23;17.90;99.90
48206;DHT22;33995;48.202;16.260;2022-08-23T21:13:55;17.90;99.90
48206;DHT22;33995;48.202;16.260;2022-08-23T21:16:25;17.90;99.90
48206;DHT22;33995;48.202;16.260;2022-08-23T21:18:55;17.90;99.90
48206;DHT22;33995;48.202;16.260;2022-08-23T21:21:26;17.90;99.90
48206;DHT22;33995;48.202;16.260;2022-08-23T21:23:56;17.90;99.90
48206;DHT22;33995;48.202;16.260;2022-08-23T21:26:25;17.90;99.90
48206;DHT22;33995;48.202;16.260;2022-08-23T21:28:57;17.90;99.90
48206;DHT22;33995;48.202;16.260;2022-08-23T21:31:25;17.90;99.90
48206;DHT22;33995;48.202;16.260;2022-08-23T21:33:57;17.90;99.90
48206;DHT22;33995;48.202;16.260;2022-08-23T21:36:26;17.90;99.90
48206;DHT22;33995;48.202;16.260;2022-08-23T21:38:54;17.90;99.90
48206;DHT22;33995;48.202;16.260;2022-08-23T21:41:41;17.90;99.90
48206;DHT22;33995;48.202;16.260;2022-08-23T21:44:13;17.90;99.90
48206;DHT22;33995;48.202;16.260;2022-08-23T21:46:41;17.90;99.90
48206;DHT22;33995;48.202;16.260;2022-08-23T21:49:11;17.90;99.90
48206;DHT22;33995;48.202;16.260;2022-08-23T21:51:46;17.90;99.90
48206;DHT22;33995;48.202;16.260;2022-08-23T21:54:17;17.90;99.90